createdAt,value
2017-09-02T00:02:20.219Z,15.15
2017-09-02T00:04:47.792Z,15.14
2017-09-02T00:07:15.230Z,14.70
2017-09-02T00:09:42.960Z,14.72
2017-09-02T00:12:10.402Z,14.49
2017-09-02T00:14:37.886Z,14.76
2017-09-02T00:17:05.370Z,14.78
2017-09-02T00:19:32.894Z,14.75
2017-09-02T00:22:00.358Z,14.78
2017-09-02T00:24:27.869Z,14.83
2017-09-02T00:26:55.429Z,14.92
2017-09-02T00:29:22.990Z,14.87
2017-09-02T00:31:50.473Z,14.85
2017-09-02T00:34:17.929Z,14.98
2017-09-02T00:36:45.460Z,14.89
2017-09-02T00:39:13.326Z,14.79
2017-09-02T00:41:40.841Z,15.01
2017-09-02T00:44:08.296Z,15.19
2017-09-02T00:46:35.772Z,14.97
2017-09-02T00:49:03.240Z,15.03
2017-09-02T00:51:30.737Z,14.94
2017-09-02T00:53:58.212Z,15.11
2017-09-02T00:56:25.698Z,15.01
2017-09-02T00:58:53.178Z,15.02
2017-09-02T01:01:20.734Z,14.96
2017-09-02T01:03:48.217Z,14.87
2017-09-02T01:06:15.704Z,14.59
2017-09-02T01:08:43.162Z,14.43
2017-09-02T01:11:10.641Z,14.47
2017-09-02T01:13:38.125Z,14.48
2017-09-02T01:16:05.701Z,14.70
2017-09-02T01:18:33.665Z,14.96
2017-09-02T01:21:01.207Z,14.81
2017-09-02T01:23:28.760Z,14.65
2017-09-02T01:25:56.299Z,14.64
2017-09-02T01:28:23.776Z,14.58
2017-09-02T01:30:51.795Z,14.72
2017-09-02T01:33:19.297Z,14.75
2017-09-02T01:35:46.747Z,14.83
2017-09-02T01:38:14.261Z,14.78
2017-09-02T01:40:41.728Z,14.80
2017-09-02T01:43:09.342Z,14.83
2017-09-02T01:45:36.803Z,14.91
2017-09-02T01:48:04.281Z,14.85
2017-09-02T01:50:31.784Z,14.93
2017-09-02T01:52:59.307Z,14.80
2017-09-02T01:55:26.814Z,14.92
2017-09-02T01:57:54.308Z,14.77
2017-09-02T02:00:21.757Z,14.96
2017-09-02T02:02:49.240Z,14.81
2017-09-02T02:05:16.696Z,14.82
2017-09-02T02:07:44.187Z,14.96
2017-09-02T02:10:11.659Z,14.79
2017-09-02T02:12:39.137Z,15.10
2017-09-02T02:15:06.607Z,15.30
2017-09-02T02:17:34.064Z,14.87
2017-09-02T02:20:01.593Z,14.79
2017-09-02T02:22:29.056Z,14.66
2017-09-02T02:24:56.609Z,14.49
2017-09-02T02:27:24.165Z,14.41
2017-09-02T02:29:51.657Z,14.40
2017-09-02T02:32:19.233Z,14.41
2017-09-02T02:34:46.740Z,14.28
2017-09-02T02:37:14.209Z,14.02
2017-09-02T02:39:41.773Z,13.88
2017-09-02T02:42:09.229Z,13.80
2017-09-02T02:44:36.793Z,13.87
2017-09-02T02:47:04.326Z,14.12
2017-09-02T02:49:31.900Z,14.13
2017-09-02T02:51:59.369Z,13.98
2017-09-02T02:54:26.903Z,14.02
2017-09-02T02:56:54.369Z,14.12
2017-09-02T02:59:22.007Z,14.24
2017-09-02T03:01:49.545Z,14.34
2017-09-02T03:04:17.049Z,14.54
2017-09-02T03:06:44.598Z,14.69
2017-09-02T03:09:12.159Z,14.37
2017-09-02T03:11:39.616Z,14.49
2017-09-02T03:14:07.125Z,14.55
2017-09-02T03:16:34.576Z,14.39
2017-09-02T03:19:02.080Z,14.66
2017-09-02T03:21:29.638Z,14.64
2017-09-02T03:23:57.091Z,14.52
2017-09-02T03:26:24.574Z,14.55
2017-09-02T03:28:52.109Z,14.05
2017-09-02T03:31:19.600Z,14.21
2017-09-02T03:33:47.061Z,14.16
2017-09-02T03:36:14.553Z,14.27
2017-09-02T03:38:42.040Z,14.36
2017-09-02T03:41:09.513Z,14.30
2017-09-02T03:43:37.065Z,14.36
2017-09-02T03:46:04.584Z,14.36
2017-09-02T03:48:32.033Z,14.35
2017-09-02T03:50:59.688Z,14.35
2017-09-02T03:53:27.201Z,14.47
2017-09-02T03:55:54.678Z,14.46
2017-09-02T03:58:22.131Z,14.24
2017-09-02T04:00:49.629Z,14.40
2017-09-02T04:03:17.085Z,14.22
2017-09-02T04:05:44.583Z,14.19
2017-09-02T04:08:12.148Z,14.30
2017-09-02T04:10:39.687Z,14.33
2017-09-02T04:13:07.255Z,14.53
2017-09-02T04:15:34.732Z,14.29
2017-09-02T04:18:02.212Z,14.40
2017-09-02T04:20:29.725Z,14.70
2017-09-02T04:22:57.228Z,14.62
2017-09-02T04:25:26.300Z,14.49
2017-09-02T04:27:53.841Z,14.44
2017-09-02T04:30:21.394Z,14.47
2017-09-02T04:32:48.895Z,14.49
2017-09-02T04:35:16.412Z,14.46
2017-09-02T04:37:43.891Z,14.45
2017-09-02T04:40:11.424Z,14.33
2017-09-02T04:42:39.126Z,14.31
2017-09-02T04:45:06.647Z,14.39
2017-09-02T04:47:34.151Z,14.36
2017-09-02T04:50:01.605Z,14.33
2017-09-02T04:52:29.134Z,14.43
2017-09-02T04:54:56.670Z,14.43
2017-09-02T04:57:24.229Z,14.30
2017-09-02T04:59:51.796Z,14.39
2017-09-02T05:02:19.357Z,14.41
2017-09-02T05:04:46.818Z,14.32
2017-09-02T05:07:14.373Z,14.38
2017-09-02T05:09:42.181Z,14.33
2017-09-02T05:12:09.838Z,14.28
2017-09-02T05:14:37.400Z,14.30
2017-09-02T05:17:04.898Z,14.49
2017-09-02T05:19:32.356Z,14.57
2017-09-02T05:21:59.924Z,14.55
2017-09-02T05:24:27.405Z,14.55
2017-09-02T05:26:54.896Z,14.59
2017-09-02T05:29:22.377Z,14.60
2017-09-02T05:31:49.900Z,14.64
2017-09-02T05:34:17.377Z,14.65
2017-09-02T05:36:44.832Z,14.64
2017-09-02T05:39:12.336Z,14.77
2017-09-02T05:41:39.878Z,14.76
2017-09-02T05:44:07.353Z,14.69
2017-09-02T05:46:34.809Z,14.69
2017-09-02T05:49:02.294Z,14.74
2017-09-02T05:51:29.750Z,14.78
2017-09-02T05:53:57.232Z,14.83
2017-09-02T05:56:24.749Z,14.97
2017-09-02T05:58:52.255Z,15.36
2017-09-02T06:01:19.725Z,15.70
2017-09-02T06:03:47.296Z,15.79
2017-09-02T06:06:14.768Z,15.60
2017-09-02T06:08:42.248Z,15.68
2017-09-02T06:11:09.703Z,15.58
2017-09-02T06:13:37.221Z,15.70
2017-09-02T06:16:04.785Z,15.90
2017-09-02T06:18:32.248Z,16.11
2017-09-02T06:20:59.801Z,15.90
2017-09-02T06:23:27.288Z,15.85
2017-09-02T06:25:54.776Z,16.04
2017-09-02T06:28:22.268Z,16.18
2017-09-02T06:30:49.749Z,16.13
2017-09-02T06:33:17.272Z,16.02
2017-09-02T06:35:44.753Z,16.31
2017-09-02T06:38:12.388Z,16.27
2017-09-02T06:40:39.976Z,16.66
2017-09-02T06:43:07.529Z,16.73
2017-09-02T06:45:35.040Z,16.71
2017-09-02T06:48:02.509Z,16.83
2017-09-02T06:50:29.997Z,16.69
2017-09-02T06:52:57.460Z,16.49
2017-09-02T06:55:24.944Z,16.38
2017-09-02T06:57:52.395Z,16.46
2017-09-02T07:00:19.897Z,16.66
2017-09-02T07:02:47.348Z,16.97
2017-09-02T07:05:14.841Z,16.74
2017-09-02T07:07:42.401Z,16.35
2017-09-02T07:10:09.904Z,16.75
2017-09-02T07:12:37.409Z,16.81
2017-09-02T07:15:04.964Z,16.83
2017-09-02T07:17:32.573Z,16.75
2017-09-02T07:20:00.613Z,16.92
2017-09-02T07:22:28.180Z,16.69
2017-09-02T07:24:55.665Z,16.76
2017-09-02T07:27:23.215Z,16.73
2017-09-02T07:29:50.708Z,16.84
2017-09-02T07:32:18.189Z,17.26
2017-09-02T07:34:45.776Z,17.07
2017-09-02T07:37:13.312Z,17.33
2017-09-02T07:39:40.776Z,17.47
2017-09-02T07:42:08.252Z,17.55
2017-09-02T07:44:36.469Z,17.55
2017-09-02T07:47:03.947Z,17.69
2017-09-02T07:49:31.405Z,17.74
2017-09-02T07:51:58.885Z,17.79
2017-09-02T07:54:26.440Z,17.86
2017-09-02T07:56:53.977Z,18.04
2017-09-02T07:59:21.440Z,17.97
2017-09-02T08:01:48.952Z,17.82
2017-09-02T08:04:16.425Z,17.50
2017-09-02T08:06:43.898Z,17.77
2017-09-02T08:09:11.361Z,17.57
2017-09-02T08:11:38.844Z,17.65
2017-09-02T08:14:06.308Z,17.36
2017-09-02T08:16:33.836Z,17.36
2017-09-02T08:19:01.394Z,17.44
2017-09-02T08:21:28.846Z,18.08
2017-09-02T08:23:59.085Z,18.06
2017-09-02T08:26:26.630Z,17.98
2017-09-02T08:28:54.109Z,17.67
2017-09-02T08:31:21.580Z,17.62
2017-09-02T08:33:49.105Z,17.57
2017-09-02T08:36:16.981Z,17.81
2017-09-02T08:38:44.459Z,18.10
2017-09-02T08:41:11.945Z,18.07
2017-09-02T08:43:39.428Z,18.26
2017-09-02T08:46:06.889Z,18.16
2017-09-02T08:48:34.401Z,18.26
2017-09-02T08:51:01.861Z,18.51
2017-09-02T08:53:29.340Z,18.80
2017-09-02T08:55:56.797Z,18.39
2017-09-02T08:58:24.301Z,18.48
2017-09-02T09:00:51.761Z,18.57
2017-09-02T09:03:19.301Z,18.54
2017-09-02T09:05:46.761Z,18.30
2017-09-02T09:08:14.237Z,18.61
2017-09-02T09:10:41.764Z,18.33
2017-09-02T09:13:09.337Z,18.12
2017-09-02T09:15:36.949Z,18.68
2017-09-02T09:18:04.424Z,18.48
2017-09-02T09:20:31.872Z,18.33
2017-09-02T09:22:59.364Z,18.36
2017-09-02T09:25:28.341Z,18.27
2017-09-02T09:27:55.813Z,18.29
2017-09-02T09:30:23.296Z,18.10
2017-09-02T09:32:50.783Z,18.23
2017-09-02T09:35:18.313Z,18.26
2017-09-02T09:37:46.437Z,18.29
2017-09-02T09:40:13.909Z,18.19
2017-09-02T09:42:41.817Z,18.21
2017-09-02T09:45:09.332Z,18.16
2017-09-02T09:47:36.893Z,17.90
2017-09-02T09:50:04.377Z,17.67
2017-09-02T09:52:32.302Z,17.76
2017-09-02T09:55:00.010Z,17.33
2017-09-02T09:57:27.494Z,17.41
2017-09-02T09:59:54.968Z,17.43
2017-09-02T10:02:22.429Z,17.43
2017-09-02T10:04:49.909Z,17.56
2017-09-02T10:07:17.375Z,17.45
2017-09-02T10:09:44.862Z,17.38
2017-09-02T10:12:12.362Z,17.44
2017-09-02T10:14:39.841Z,17.40
2017-09-02T10:17:07.292Z,17.55
2017-09-02T10:19:34.780Z,17.89
2017-09-02T10:22:02.231Z,17.67
2017-09-02T10:24:29.765Z,17.97
2017-09-02T10:26:57.253Z,17.43
2017-09-02T10:29:24.713Z,17.46
2017-09-02T10:31:52.228Z,17.63
2017-09-02T10:34:19.742Z,17.56
2017-09-02T10:36:47.215Z,18.01
2017-09-02T10:39:14.701Z,17.77
2017-09-02T10:41:42.273Z,18.12
2017-09-02T10:44:14.682Z,18.03
2017-09-02T10:46:42.259Z,17.52
2017-09-02T10:49:10.160Z,17.75
2017-09-02T10:51:37.641Z,17.04
2017-09-02T10:54:05.147Z,16.97
2017-09-02T10:56:32.637Z,17.24
2017-09-02T10:59:01.329Z,17.54
2017-09-02T11:01:28.876Z,17.74
2017-09-02T11:03:56.441Z,17.18
2017-09-02T11:06:23.941Z,17.82
2017-09-02T11:08:51.399Z,17.48
2017-09-02T11:11:18.877Z,17.02
2017-09-02T11:13:46.394Z,17.07
2017-09-02T11:16:13.885Z,16.99
2017-09-02T11:18:41.341Z,17.14
2017-09-02T11:21:08.825Z,17.98
2017-09-02T11:23:36.276Z,17.73
2017-09-02T11:26:03.800Z,18.00
2017-09-02T11:28:31.309Z,18.00
2017-09-02T11:30:58.776Z,18.27
2017-09-02T11:36:00.033Z,17.85
2017-09-02T11:38:27.587Z,17.93
2017-09-02T11:40:55.122Z,18.22
2017-09-02T11:43:22.601Z,18.28
2017-09-02T11:45:50.056Z,18.45
2017-09-02T11:48:17.544Z,18.59
2017-09-02T11:50:45.021Z,18.62
2017-09-02T11:53:12.501Z,18.49
2017-09-02T11:55:39.969Z,18.75
2017-09-02T11:58:07.583Z,19.13
2017-09-02T12:00:35.092Z,19.25
2017-09-02T12:03:02.685Z,19.56
2017-09-02T12:05:30.242Z,19.24
2017-09-02T12:07:57.781Z,19.16
2017-09-02T12:10:25.241Z,19.57
2017-09-02T12:12:52.804Z,19.67
2017-09-02T12:15:20.276Z,19.16
2017-09-02T12:17:47.826Z,19.41
2017-09-02T12:20:15.373Z,19.21
2017-09-02T12:22:42.856Z,18.59
2017-09-02T12:25:10.341Z,19.23
2017-09-02T12:27:37.840Z,19.35
2017-09-02T12:30:05.356Z,19.43
2017-09-02T12:32:32.865Z,19.45
2017-09-02T12:35:00.425Z,19.39
2017-09-02T12:37:28.017Z,19.29
2017-09-02T12:39:55.537Z,19.01
2017-09-02T12:42:23.099Z,19.11
2017-09-02T12:44:50.577Z,19.54
2017-09-02T12:47:18.045Z,19.62
2017-09-02T12:49:45.567Z,19.73
2017-09-02T12:52:13.070Z,19.68
2017-09-02T12:54:40.545Z,19.55
2017-09-02T12:57:08.000Z,19.45
2017-09-02T12:59:35.505Z,19.48
2017-09-02T13:02:02.958Z,19.47
2017-09-02T13:04:30.897Z,19.64
2017-09-02T13:06:58.982Z,19.78
2017-09-02T13:09:26.526Z,19.88
2017-09-02T13:11:54.218Z,19.95
2017-09-02T13:14:21.768Z,20.10
2017-09-02T13:16:49.238Z,20.11
2017-09-02T13:19:16.716Z,20.14
2017-09-02T13:21:44.179Z,20.04
2017-09-02T13:24:11.657Z,20.15
2017-09-02T13:26:39.143Z,20.21
2017-09-02T13:29:06.646Z,20.40
2017-09-02T13:31:34.176Z,20.26
2017-09-02T13:34:01.721Z,20.63
2017-09-02T13:36:29.193Z,20.53
2017-09-02T13:38:56.650Z,20.48
2017-09-02T13:41:24.208Z,20.38
2017-09-02T13:43:51.668Z,20.00
2017-09-02T13:46:19.148Z,20.10
2017-09-02T13:48:46.646Z,19.78
2017-09-02T13:51:14.133Z,19.86
2017-09-02T13:53:41.687Z,19.44
2017-09-02T13:56:09.245Z,19.49
2017-09-02T13:58:36.812Z,19.96
2017-09-02T14:01:04.363Z,19.52
2017-09-02T14:03:31.845Z,19.45
2017-09-02T14:05:59.357Z,19.76
2017-09-02T14:08:26.821Z,19.22
2017-09-02T14:10:54.368Z,19.12
2017-09-02T14:13:22.485Z,19.22
2017-09-02T14:15:49.980Z,19.30
2017-09-02T14:18:17.480Z,19.22
2017-09-02T14:20:45.020Z,19.40
2017-09-02T14:23:12.597Z,19.26
2017-09-02T14:25:40.105Z,19.54
2017-09-02T14:28:07.613Z,19.65
2017-09-02T14:30:35.077Z,19.52
2017-09-02T14:33:02.586Z,19.38
2017-09-02T14:35:30.053Z,19.19
2017-09-02T14:37:57.530Z,19.37
2017-09-02T14:40:25.093Z,19.49
2017-09-02T14:42:52.577Z,19.13
2017-09-02T14:45:20.121Z,19.34
2017-09-02T14:47:47.608Z,19.23
2017-09-02T14:50:15.124Z,18.89
2017-09-02T14:52:42.689Z,19.05
2017-09-02T14:55:10.193Z,19.12
2017-09-02T14:57:37.709Z,18.62
2017-09-02T15:00:05.185Z,18.34
2017-09-02T15:02:32.647Z,18.25
2017-09-02T15:05:00.496Z,18.21
2017-09-02T15:07:28.089Z,18.24
2017-09-02T15:09:55.577Z,18.33
2017-09-02T15:12:23.062Z,18.15
2017-09-02T15:14:50.545Z,18.28
2017-09-02T15:17:18.105Z,18.02
2017-09-02T15:19:45.632Z,17.92
2017-09-02T15:22:13.104Z,17.57
2017-09-02T15:24:40.667Z,17.65
2017-09-02T15:27:08.218Z,17.50
2017-09-02T15:29:35.720Z,17.35
2017-09-02T15:32:03.568Z,17.50
2017-09-02T15:34:31.069Z,17.58
2017-09-02T15:36:58.654Z,17.55
2017-09-02T15:39:26.115Z,17.68
2017-09-02T15:41:53.671Z,17.67
2017-09-02T15:44:21.213Z,17.56
2017-09-02T15:46:48.717Z,17.91
2017-09-02T15:49:16.178Z,17.67
2017-09-02T15:51:43.794Z,17.55
2017-09-02T15:54:11.297Z,17.37
2017-09-02T15:56:38.789Z,17.52
2017-09-02T15:59:06.261Z,17.14
2017-09-02T16:01:33.871Z,17.58
2017-09-02T16:04:01.412Z,17.35
2017-09-02T16:06:28.924Z,17.34
2017-09-02T16:08:56.380Z,17.84
2017-09-02T16:11:23.861Z,17.61
2017-09-02T16:13:51.358Z,17.89
2017-09-02T16:16:18.881Z,17.63
2017-09-02T16:18:46.357Z,17.96
2017-09-02T16:21:13.832Z,18.14
2017-09-02T16:23:41.297Z,18.13
2017-09-02T16:26:08.802Z,17.98
2017-09-02T16:28:36.276Z,18.34
2017-09-02T16:31:03.825Z,18.28
2017-09-02T16:33:31.279Z,18.20
2017-09-02T16:35:58.756Z,18.36
2017-09-02T16:38:26.472Z,18.65
2017-09-02T16:40:53.928Z,17.93
2017-09-02T16:43:21.400Z,18.34
2017-09-02T16:45:48.853Z,18.34
2017-09-02T16:48:16.331Z,18.51
2017-09-02T16:50:43.789Z,18.44
2017-09-02T16:53:11.264Z,18.26
2017-09-02T16:55:38.745Z,18.32
2017-09-02T16:58:06.239Z,18.46
2017-09-02T17:00:33.696Z,18.46
2017-09-02T17:03:01.173Z,18.43
2017-09-02T17:05:28.644Z,18.39
2017-09-02T17:07:56.121Z,18.30
2017-09-02T17:10:23.614Z,17.79
2017-09-02T17:12:51.094Z,17.63
2017-09-02T17:15:18.552Z,17.62
2017-09-02T17:17:46.052Z,17.62
2017-09-02T17:20:13.513Z,17.54
2017-09-02T17:22:40.989Z,17.59
2017-09-02T17:25:08.456Z,17.59
2017-09-02T17:27:35.971Z,17.65
2017-09-02T17:30:03.449Z,17.69
2017-09-02T17:32:30.940Z,17.63
2017-09-02T17:34:58.396Z,17.53
2017-09-02T17:37:25.888Z,17.66
2017-09-02T17:39:53.351Z,17.28
2017-09-02T17:42:20.869Z,17.51
2017-09-02T17:44:48.937Z,17.33
2017-09-02T17:47:16.421Z,16.99
2017-09-02T17:49:44.237Z,16.73
2017-09-02T17:52:11.714Z,16.64
2017-09-02T17:54:39.204Z,16.51
2017-09-02T17:57:06.661Z,16.67
2017-09-02T17:59:34.137Z,16.53
2017-09-02T18:02:01.645Z,16.41
2017-09-02T18:04:29.117Z,16.51
2017-09-02T18:06:56.615Z,16.62
2017-09-02T18:09:24.096Z,16.44
2017-09-02T18:11:51.550Z,16.54
2017-09-02T18:14:19.056Z,16.39
2017-09-02T18:16:46.517Z,16.04
2017-09-02T18:19:13.999Z,16.48
2017-09-02T18:21:41.449Z,16.17
2017-09-02T18:24:09.105Z,16.41
2017-09-02T18:26:36.585Z,16.42
2017-09-02T18:29:04.032Z,16.00
2017-09-02T18:31:31.533Z,16.13
2017-09-02T18:33:58.998Z,15.92
2017-09-02T18:36:26.545Z,15.87
2017-09-02T18:38:54.114Z,15.95
2017-09-02T18:41:21.594Z,15.94
2017-09-02T18:43:49.057Z,15.71
2017-09-02T18:46:16.592Z,15.60
2017-09-02T18:48:44.048Z,15.57
2017-09-02T18:51:11.529Z,15.54
2017-09-02T18:53:38.990Z,15.44
2017-09-02T18:56:06.469Z,15.67
2017-09-02T18:58:34.012Z,15.74
2017-09-02T19:01:01.499Z,15.80
2017-09-02T19:03:28.969Z,15.84
2017-09-02T19:05:56.668Z,15.66
2017-09-02T19:08:24.124Z,15.68
2017-09-02T19:10:51.637Z,15.50
2017-09-02T19:13:19.123Z,15.60
2017-09-02T19:15:46.603Z,15.85
2017-09-02T19:18:14.921Z,15.78
2017-09-02T19:20:42.450Z,15.70
2017-09-02T19:23:10.035Z,15.72
2017-09-02T19:25:37.671Z,15.40
2017-09-02T19:28:05.393Z,15.35
2017-09-02T19:30:33.017Z,15.45
2017-09-02T19:33:00.566Z,15.03
2017-09-02T19:35:28.081Z,15.36
2017-09-02T19:37:55.573Z,15.37
2017-09-02T19:40:23.043Z,15.25
2017-09-02T19:42:50.529Z,15.15
2017-09-02T19:45:18.041Z,15.10
2017-09-02T19:47:45.582Z,15.20
2017-09-02T19:50:13.210Z,15.21
2017-09-02T19:52:40.821Z,15.06
2017-09-02T19:55:08.284Z,15.08
2017-09-02T19:57:35.830Z,14.87
2017-09-02T20:00:03.304Z,15.00
2017-09-02T20:02:30.833Z,14.86
2017-09-02T20:04:58.346Z,14.91
2017-09-02T20:07:25.852Z,14.79
2017-09-02T20:09:53.320Z,14.88
2017-09-02T20:12:20.807Z,14.96
2017-09-02T20:14:48.293Z,15.19
2017-09-02T20:17:15.788Z,15.17
2017-09-02T20:19:43.518Z,15.11
2017-09-02T20:22:11.005Z,15.06
2017-09-02T20:24:38.473Z,15.38
2017-09-02T20:27:06.286Z,15.28
2017-09-02T20:29:33.859Z,14.93
2017-09-02T20:32:01.348Z,15.04
2017-09-02T20:34:28.833Z,15.03
2017-09-02T20:36:56.326Z,15.10
2017-09-02T20:39:23.869Z,15.03
2017-09-02T20:41:51.437Z,15.32
2017-09-02T20:44:18.921Z,15.57
2017-09-02T20:46:46.626Z,15.75
2017-09-02T20:49:14.208Z,15.30
2017-09-02T20:51:41.773Z,15.21
2017-09-02T20:54:09.273Z,15.15
2017-09-02T20:56:36.751Z,15.04
2017-09-02T20:59:04.249Z,15.24
2017-09-02T21:01:31.805Z,15.65
2017-09-02T21:03:59.317Z,15.11
2017-09-02T21:06:26.820Z,14.93
2017-09-02T21:08:54.315Z,14.99
2017-09-02T21:11:21.833Z,14.90
2017-09-02T21:13:49.347Z,14.89
2017-09-02T21:16:16.801Z,14.83
2017-09-02T21:18:44.298Z,14.71
2017-09-02T21:21:11.770Z,14.80
2017-09-02T21:23:39.249Z,14.81
2017-09-02T21:26:06.777Z,14.91
2017-09-02T21:28:34.289Z,15.12
2017-09-02T21:31:01.768Z,14.86
2017-09-02T21:33:29.248Z,15.01
2017-09-02T21:35:56.705Z,14.75
2017-09-02T21:38:24.186Z,14.66
2017-09-02T21:40:51.717Z,14.53
2017-09-02T21:43:19.205Z,14.24
2017-09-02T21:45:46.793Z,14.01
2017-09-02T21:48:14.284Z,14.13
2017-09-02T21:50:41.852Z,14.22
2017-09-02T21:53:09.331Z,13.93
2017-09-02T21:55:36.864Z,13.97
2017-09-02T21:58:04.433Z,13.93
2017-09-02T22:00:31.985Z,14.10
2017-09-02T22:02:59.551Z,14.05
2017-09-02T22:05:27.104Z,13.74
2017-09-02T22:07:54.607Z,14.03
2017-09-02T22:10:22.081Z,13.57
2017-09-02T22:12:49.589Z,13.48
2017-09-02T22:15:17.042Z,13.25
2017-09-02T22:17:44.492Z,13.36
2017-09-02T22:20:11.984Z,13.25
2017-09-02T22:22:39.514Z,13.60
2017-09-02T22:25:07.062Z,13.43
2017-09-02T22:27:34.621Z,13.45
2017-09-02T22:30:02.183Z,13.55
2017-09-02T22:32:29.646Z,13.38
2017-09-02T22:34:57.140Z,13.46
2017-09-02T22:37:24.753Z,13.49
2017-09-02T22:39:52.258Z,13.57
2017-09-02T22:42:19.721Z,13.31
2017-09-02T22:44:47.205Z,13.21
2017-09-02T22:47:14.729Z,13.09
2017-09-02T22:49:42.236Z,13.04
2017-09-02T22:52:09.697Z,12.82
2017-09-02T22:54:37.194Z,12.66
2017-09-02T22:57:04.655Z,12.43
2017-09-02T22:59:32.137Z,12.46
2017-09-02T23:01:59.629Z,12.56
2017-09-02T23:04:27.110Z,12.32
2017-09-02T23:06:54.578Z,12.54
2017-09-02T23:09:22.143Z,12.53
2017-09-02T23:11:49.657Z,12.74
2017-09-02T23:14:17.212Z,12.42
2017-09-02T23:16:44.669Z,12.14
2017-09-02T23:19:12.163Z,12.10
2017-09-02T23:21:39.685Z,11.84
2017-09-02T23:24:07.172Z,11.94
2017-09-02T23:26:34.709Z,12.09
2017-09-02T23:29:02.184Z,12.99
2017-09-02T23:31:29.635Z,12.60
2017-09-02T23:33:57.174Z,12.33
2017-09-02T23:36:24.632Z,12.26
2017-09-02T23:38:52.102Z,12.12
2017-09-02T23:41:19.595Z,12.10
2017-09-02T23:43:47.044Z,12.21
2017-09-02T23:46:14.536Z,12.18
2017-09-02T23:48:41.998Z,12.21
2017-09-02T23:51:09.476Z,12.07
2017-09-02T23:53:37.024Z,11.97
2017-09-02T23:56:04.505Z,11.84
2017-09-02T23:58:31.992Z,11.65
